Time;durP1;ratioP1;P1;durP2;ratioP2;P2;SDS_P1;SDS_P2;PMS_P1;PMS_P2;Temp;Humidity;BMP_temperature;BMP_pressure;BME280_temperature;BME280_humidity;BME280_pressure;Samples;Min_cycle;Max_cycle;Signal;HPM_P1;HPM_P2
2022/11/16 00:00:15;;;;;;;89.55;40.78;;;;;;;6.88;77.19;99530.72;3133050;28;20076;-72
2022/11/16 00:01:48;;;;;;;96.78;41.90;;;;;;;6.89;77.37;99532.44;3133268;28;20575;-72
2022/11/16 00:03:19;;;;;;;83.18;39.35;;;;;;;6.91;77.22;99535.78;3123657;28;20065;-72
2022/11/16 00:04:51;;;;;;;89.40;41.65;;;;;;;6.91;77.29;99533.19;3132664;28;20142;-71
2022/11/16 00:06:24;;;;;;;79.20;38.47;;;;;;;6.92;77.27;99537.50;3133253;28;20510;-72
2022/11/16 00:07:56;;;;;;;82.05;40.00;;;;;;;6.92;77.19;99532.31;3128597;28;20060;-71
2022/11/16 00:09:31;;;;;;;88.50;41.13;;;;;;;6.92;77.09;99527.13;3123388;28;20088;-71
2022/11/16 00:11:06;;;;;;;88.13;38.33;;;;;;;6.66;77.09;99484.03;3119654;28;20048;-71
2022/11/16 00:12:39;;;;;;;86.30;37.78;;;;;;;6.92;77.22;99527.13;3123181;28;20136;-72
2022/11/16 00:14:11;;;;;;;89.85;40.55;;;;;;;6.91;77.17;99522.00;3121608;28;20119;-73
2022/11/16 00:15:43;;;;;;;84.65;36.88;;;;;;;6.89;77.33;99514.31;3122809;28;20041;-72
2022/11/16 00:17:15;;;;;;;82.63;36.92;;;;;;;6.84;77.36;99508.44;3122202;28;20613;-72
2022/11/16 00:18:47;;;;;;;83.70;38.03;;;;;;;6.83;77.24;99515.38;3112316;28;20056;-72
2022/11/16 00:20:23;;;;;;;85.28;36.95;;;;;;;6.82;77.44;99510.22;3123664;28;20077;-72
2022/11/16 00:21:55;;;;;;;81.18;38.53;;;;;;;6.79;77.39;99508.59;3118714;28;20045;-72
2022/11/16 00:23:31;;;;;;;87.63;37.53;;;;;;;6.77;77.26;99502.63;3116226;28;20084;-71
2022/11/16 00:25:03;;;;;;;87.15;39.22;;;;;;;6.77;77.44;99501.75;3121124;28;20151;-72
2022/11/16 00:26:37;;;;;;;84.57;38.08;;;;;;;6.79;77.40;99497.38;3124059;28;20564;-71
2022/11/16 00:28:12;;;;;;;81.80;37.30;;;;;;;6.79;77.33;99498.22;3123709;28;20055;-71
2022/11/16 00:29:46;;;;;;;80.60;38.42;;;;;;;6.80;77.38;99504.25;3123458;28;20147;-71
2022/11/16 00:31:19;;;;;;;86.05;38.35;;;;;;;6.75;77.30;99491.47;3123617;28;20087;-71
2022/11/16 00:32:51;;;;;;;80.35;38.17;;;;;;;6.77;77.27;99491.41;3122296;28;20045;-72
2022/11/16 00:34:24;;;;;;;82.00;38.70;;;;;;;6.78;77.35;99487.94;3114505;28;20575;-73
2022/11/16 00:35:56;;;;;;;89.13;38.40;;;;;;;6.60;77.39;99458.38;3123857;28;20488;-73
2022/11/16 00:37:28;;;;;;;81.78;38.00;;;;;;;6.82;77.29;99484.34;3123774;28;20104;-73
2022/11/16 00:38:59;;;;;;;75.25;37.38;;;;;;;6.84;77.32;99487.72;3122701;28;20772;-72
2022/11/16 00:40:31;;;;;;;84.72;37.25;;;;;;;6.87;77.17;99482.44;3113716;28;20172;-73
2022/11/16 00:42:04;;;;;;;78.10;36.78;;;;;;;6.90;77.12;99487.50;3120282;28;20834;-72
2022/11/16 00:43:37;;;;;;;77.88;37.53;;;;;;;6.90;77.07;99484.91;3122367;28;20057;-72
2022/11/16 00:45:10;;;;;;;83.00;38.92;;;;;;;6.90;77.04;99481.50;3123733;28;20518;-73
2022/11/16 00:46:42;;;;;;;72.60;36.13;;;;;;;6.89;76.88;99485.84;3123712;28;20052;-73
2022/11/16 00:48:14;;;;;;;72.72;35.30;;;;;;;6.90;76.97;99476.31;3117568;28;20045;-73
2022/11/16 00:49:46;;;;;;;79.00;37.53;;;;;;;6.89;77.04;99483.25;3110500;28;20115;-73
2022/11/16 00:51:18;;;;;;;80.72;36.17;;;;;;;6.87;76.92;99477.25;3122355;28;20612;-72
2022/11/16 00:52:50;;;;;;;72.07;35.00;;;;;;;6.85;76.72;99476.47;3123506;28;20508;-73
2022/11/16 00:54:22;;;;;;;77.80;34.67;;;;;;;6.87;77.06;99479.84;3123743;28;20061;-72
2022/11/16 00:55:53;;;;;;;69.20;33.55;;;;;;;6.89;76.96;99474.59;3123298;28;20048;-72
2022/11/16 00:57:26;;;;;;;78.40;36.17;;;;;;;6.90;76.95;99471.16;3123732;28;20056;-72
2022/11/16 00:58:58;;;;;;;;;;;;;;;6.82;76.72;99474.81;3124237;28;20048;-72
2022/11/16 01:00:30;;;;;;;73.93;33.67;;;;;;;6.76;76.99;99462.09;3123766;28;19932;-73
2022/11/16 01:02:02;;;;;;;71.63;34.10;;;;;;;6.82;77.04;99461.88;3122821;28;20067;-72
2022/11/16 01:03:36;;;;;;;77.55;36.70;;;;;;;6.84;76.94;99473.03;3112171;28;20144;-72
2022/11/16 01:05:09;;;;;;;74.90;34.55;;;;;;;6.84;77.23;99462.69;3121812;28;20502;-71
2022/11/16 01:06:41;;;;;;;75.53;33.67;;;;;;;6.85;77.00;99468.69;3115999;28;20202;-74
2022/11/16 01:08:13;;;;;;;73.13;33.95;;;;;;;6.85;77.04;99463.53;3121529;28;20091;-72
2022/11/16 01:09:45;;;;;;;70.20;34.00;;;;;;;6.85;76.81;99458.34;3122341;28;20064;-72
2022/11/16 01:13:12;;;;;;;67.32;32.70;;;;;;;6.80;77.14;99462.84;3122998;28;20045;-72
2022/11/16 01:14:45;;;;;;;72.72;33.78;;;;;;;6.78;77.18;99460.31;3120541;28;20107;-72
2022/11/16 01:16:17;;;;;;;69.30;32.08;;;;;;;6.73;77.15;99453.59;3122961;28;20061;-73
2022/11/16 01:17:49;;;;;;;76.72;35.25;;;;;;;6.69;77.46;99460.63;3118618;28;20390;-72
2022/11/16 01:19:21;;;;;;;71.88;34.05;;;;;;;6.69;77.32;99467.56;3116005;28;20052;-72
2022/11/16 01:20:53;;;;;;;72.57;33.60;;;;;;;6.66;77.51;99467.66;3123611;28;20052;-72
2022/11/16 01:22:25;;;;;;;70.70;32.83;;;;;;;6.61;77.77;99465.22;3115403;28;20057;-72
2022/11/16 01:23:57;;;;;;;69.95;33.83;;;;;;;6.62;77.63;99472.06;3123153;28;20555;-72
2022/11/16 01:25:29;;;;;;;68.82;33.00;;;;;;;6.61;77.79;99462.63;3122321;28;20056;-71
2022/11/16 01:26:59;;;;;;;73.72;33.92;;;;;;;6.57;77.60;99454.16;3123518;28;20048;-73
2022/11/16 01:28:33;;;;;;;77.50;33.97;;;;;;;6.59;77.82;99459.25;3121187;28;20084;-73
2022/11/16 01:30:05;;;;;;;;;;;;;;;6.51;77.63;99464.69;3110769;28;20061;-72
2022/11/16 01:31:36;;;;;;;64.82;31.35;;;;;;;6.43;77.88;99448.59;3118874;28;20607;-71
2022/11/16 01:33:08;;;;;;;65.72;31.35;;;;;;;6.52;78.01;99463.78;3120252;28;20076;-73
2022/11/16 01:34:46;;;;;;;68.45;32.72;;;;;;;6.51;77.68;99464.69;3115056;28;20111;-72
2022/11/16 01:36:16;;;;;;;74.97;31.70;;;;;;;6.48;77.74;99454.47;3122562;28;20187;-71
2022/11/16 01:37:48;;;;;;;70.68;32.42;;;;;;;6.51;77.69;99454.34;3122835;28;20068;-72
2022/11/16 01:39:19;;;;;;;71.00;33.45;;;;;;;6.53;77.70;99456.88;3123496;28;20471;-73
2022/11/16 01:40:51;;;;;;;67.05;32.67;;;;;;;6.53;77.61;99452.53;3111091;28;20049;-71
2022/11/16 01:42:25;;;;;;;72.22;31.92;;;;;;;6.55;77.65;99445.56;3123044;28;20419;-73
2022/11/16 01:44:02;;;;;;;69.03;30.90;;;;;;;6.50;77.44;99437.13;3122556;28;20122;-73
2022/11/16 01:45:39;;;;;;;67.60;32.40;;;;;;;6.57;77.59;99448.13;3123290;28;20110;-73
2022/11/16 01:47:13;;;;;;;68.28;31.58;;;;;;;6.54;77.67;99449.06;3121986;28;20379;-73
2022/11/16 01:48:46;;;;;;;71.55;32.50;;;;;;;6.54;77.47;99445.66;3114727;28;20375;-75
2022/11/16 01:50:19;;;;;;;68.68;33.58;;;;;;;6.52;77.65;99443.09;3115066;28;20061;-73
2022/11/16 01:51:55;;;;;;;68.45;32.83;;;;;;;6.47;77.59;99442.41;3122458;28;20525;-74
2022/11/16 01:53:27;;;;;;;68.93;31.83;;;;;;;6.45;77.77;99449.41;3123295;28;20118;-73
2022/11/16 01:54:59;;;;;;;64.53;31.50;;;;;;;6.28;77.60;99415.50;3123020;28;20056;-73
2022/11/16 01:56:32;;;;;;;67.03;33.13;;;;;;;6.46;77.60;99448.47;3123085;28;20044;-75
2022/11/16 01:58:06;;;;;;;68.90;31.95;;;;;;;6.42;77.65;99444.31;3123332;28;20140;-74
2022/11/16 01:59:40;;;;;;;71.95;33.92;;;;;;;6.41;77.74;99444.38;3131308;28;20044;-75
2022/11/16 02:01:12;;;;;;;75.65;33.90;;;;;;;6.35;77.75;99441.06;3131679;28;20052;-72
2022/11/16 02:02:44;;;;;;;71.63;33.33;;;;;;;6.35;77.72;99437.66;3126510;28;20060;-74
2022/11/16 02:04:15;;;;;;;70.47;33.38;;;;;;;6.34;77.85;99446.31;3126566;28;20543;-74
2022/11/16 02:05:59;;;;;;;67.95;33.17;;;;;;;6.29;77.83;99443.03;3131659;28;20041;-74
2022/11/16 02:09:54;;;;;;;65.20;31.00;;;;;;;6.29;77.78;99437.84;3131391;28;20568;-74
2022/11/16 02:11:39;;;;;;;60.38;30.38;;;;;;;6.27;77.80;99442.22;3131527;28;20053;-74
2022/11/16 02:13:25;;;;;;;63.45;31.00;;;;;;;6.25;77.92;99437.13;3131540;28;20049;-74
2022/11/16 02:15:08;;;;;;;64.95;29.92;;;;;;;6.20;77.87;99435.59;3129269;28;20052;-73
2022/11/16 02:16:51;;;;;;;69.30;31.15;;;;;;;6.23;77.66;99438.06;3131835;28;20084;-73
2022/11/16 02:18:35;;;;;;;63.42;30.52;;;;;;;6.21;77.58;99434.69;3122476;28;20549;-73
2022/11/16 02:20:37;;;;;;;65.05;30.77;;;;;;;6.21;77.61;99434.69;3132688;28;20049;-74
2022/11/16 02:22:27;;;;;;;66.75;30.10;;;;;;;6.15;77.79;99426.25;3126637;28;20186;-74
2022/11/16 02:24:22;;;;;;;67.30;30.30;;;;;;;6.17;77.71;99428.75;3122655;28;20132;-74
2022/11/16 02:26:06;;;;;;;63.58;29.52;;;;;;;6.14;77.83;99427.13;3133957;28;20059;-74
2022/11/16 02:28:14;;;;;;;68.07;31.50;;;;;;;6.00;77.74;99398.28;3134435;28;20045;-73
2022/11/16 02:29:52;;;;;;;60.55;29.13;;;;;;;6.12;77.72;99413.44;3127601;28;20056;-73
2022/11/16 02:31:29;;;;;;;67.93;30.70;;;;;;;6.13;77.87;99416.84;3134110;28;20052;-73
2022/11/16 02:33:06;;;;;;;67.43;31.73;;;;;;;6.13;77.89;99415.09;3132377;28;20041;-73
2022/11/16 02:34:41;;;;;;;63.75;30.27;;;;;;;6.17;77.86;99412.41;3127027;28;20103;-72
2022/11/16 02:36:19;;;;;;;70.78;32.20;;;;;;;6.17;77.73;99408.09;3133984;28;20045;-71
2022/11/16 02:37:55;;;;;;;66.18;30.92;;;;;;;6.18;77.87;99399.41;3134556;28;20040;-72
2022/11/16 02:39:28;;;;;;;65.63;31.40;;;;;;;6.11;77.57;99391.03;3134105;28;20050;-72
2022/11/16 02:41:07;;;;;;;70.70;32.20;;;;;;;6.18;77.63;99406.34;3123903;28;20057;-72
2022/11/16 02:42:43;;;;;;;65.38;30.38;;;;;;;6.19;77.72;99406.31;3134337;28;20087;-72
2022/11/16 02:44:20;;;;;;;68.32;31.35;;;;;;;6.21;77.51;99409.69;3130974;28;20060;-73
2022/11/16 02:45:58;;;;;;;67.78;31.35;;;;;;;6.21;77.62;99393.31;3134536;28;20041;-72
2022/11/16 02:47:33;;;;;;;71.85;33.17;;;;;;;6.22;77.58;99395.84;3130836;28;20049;-72
2022/11/16 02:49:11;;;;;;;68.00;32.63;;;;;;;6.20;77.37;99387.28;3125438;28;20107;-73
2022/11/16 02:50:44;;;;;;;68.97;30.55;;;;;;;6.22;77.48;99384.69;3129340;28;20052;-73
2022/11/16 02:52:17;;;;;;;72.07;31.95;;;;;;;6.22;77.38;99385.50;3134397;28;20144;-72
2022/11/16 02:54:02;;;;;;;61.70;29.45;;;;;;;6.22;77.38;99370.00;3134361;28;20072;-73
2022/11/16 02:55:36;;;;;;;71.10;31.17;;;;;;;6.23;77.30;99378.59;3133898;28;20463;-73
2022/11/16 02:57:33;;;;;;;67.28;31.67;;;;;;;6.12;77.21;99351.38;3133776;28;20103;-73
2022/11/16 02:59:05;;;;;;;71.15;32.55;;;;;;;6.22;77.28;99370.00;3128416;28;20053;-74
2022/11/16 03:00:46;;;;;;;73.22;32.90;;;;;;;6.19;77.09;99361.50;3126941;28;20052;-73
2022/11/16 03:02:26;;;;;;;70.45;30.88;;;;;;;6.25;77.09;99371.63;3132940;28;20052;-74
2022/11/16 03:04:03;;;;;;;68.85;30.50;;;;;;;6.24;77.15;99370.81;3126452;28;20045;-74
2022/11/16 03:05:39;;;;;;;65.82;30.83;;;;;;;6.22;77.15;99361.41;3133846;28;20045;-75
2022/11/16 03:07:14;;;;;;;74.75;31.40;;;;;;;5.97;77.16;99320.84;3133894;28;20051;-73
2022/11/16 03:08:53;;;;;;;68.18;31.17;;;;;;;6.21;77.24;99346.75;3134494;28;20132;-73
2022/11/16 03:12:19;;;;;;;76.18;31.73;;;;;;;6.17;77.32;99340.03;3134035;28;20057;-73
2022/11/16 03:13:53;;;;;;;71.22;31.40;;;;;;;6.12;77.13;99338.44;3130811;28;20049;-73
2022/11/16 03:15:25;;;;;;;65.22;29.95;;;;;;;6.08;77.09;99336.84;3133306;28;20487;-73
2022/11/16 03:16:58;;;;;;;63.65;29.60;;;;;;;6.07;77.00;99334.34;3133537;28;20049;-73
2022/11/16 03:18:31;;;;;;;65.55;29.88;;;;;;;6.05;77.01;99336.97;3124849;28;20419;-73
2022/11/16 03:20:10;;;;;;;65.70;30.85;;;;;;;5.99;76.93;99344.91;3131933;28;20099;-74
2022/11/16 03:21:47;;;;;;;68.25;30.50;;;;;;;6.05;77.02;99342.13;3129784;28;20103;-74
2022/11/16 03:23:18;;;;;;;67.97;31.30;;;;;;;6.02;77.06;99350.00;3131359;28;20052;-74
2022/11/16 03:24:50;;;;;;;66.55;30.83;;;;;;;5.97;77.02;99344.13;3133298;28;20098;-74
2022/11/16 03:26:26;;;;;;;71.55;32.17;;;;;;;5.78;77.02;99324.94;3133488;28;20065;-74
2022/11/16 03:28:06;;;;;;;67.43;30.27;;;;;;;5.88;77.06;99345.25;3133419;28;20151;-74
2022/11/16 03:29:42;;;;;;;73.65;31.08;;;;;;;5.93;77.15;99355.47;3133533;28;20506;-73
2022/11/16 03:31:21;;;;;;;65.50;31.25;;;;;;;5.91;77.22;99350.31;3132995;28;20518;-72
2022/11/16 03:32:59;;;;;;;70.72;30.83;;;;;;;5.91;77.23;99344.28;3132379;28;20045;-74
2022/11/16 03:34:36;;;;;;;73.78;32.08;;;;;;;5.90;77.19;99340.03;3125115;28;20082;-73
2022/11/16 03:36:13;;;;;;;70.10;30.35;;;;;;;5.87;77.18;99338.38;3133437;28;20102;-72
2022/11/16 03:37:48;;;;;;;70.53;31.35;;;;;;;5.75;77.29;99315.53;3133406;28;20463;-74
2022/11/16 03:39:26;;;;;;;71.38;30.60;;;;;;;5.84;77.08;99327.31;3123227;28;20068;-72
2022/11/16 03:41:01;;;;;;;65.80;30.77;;;;;;;5.81;77.07;99333.44;3117259;28;20046;-72
2022/11/16 03:42:34;;;;;;;58.22;28.58;;;;;;;5.76;77.03;99327.56;3133424;28;20115;-73
2022/11/16 03:44:07;;;;;;;69.07;29.45;;;;;;;5.81;77.16;99348.94;3133334;28;20049;-73
2022/11/16 03:45:39;;;;;;;;;;;;;;;5.70;76.87;99351.00;3133565;28;20057;-73
2022/11/16 03:47:12;;;;;;;63.15;28.92;;;;;;;5.70;77.25;99351.84;3132058;28;19925;-73
2022/11/16 03:48:44;;;;;;;74.28;32.20;;;;;;;5.68;77.11;99351.09;3124685;28;20060;-73
2022/11/16 03:50:17;;;;;;;65.97;31.00;;;;;;;5.71;77.21;99352.72;3124630;28;20045;-73
2022/11/16 03:51:49;;;;;;;68.13;32.65;;;;;;;5.72;77.12;99358.72;3133121;28;20057;-73
2022/11/16 03:53:21;;;;;;;70.82;31.08;;;;;;;5.73;77.14;99363.84;3133020;28;20053;-72
2022/11/16 03:54:53;;;;;;;77.50;34.30;;;;;;;5.73;76.96;99358.66;3131557;28;20083;-72
2022/11/16 03:56:24;;;;;;;70.10;32.35;;;;;;;5.69;76.99;99355.34;3120573;28;20119;-73
2022/11/16 03:57:56;;;;;;;74.72;33.22;;;;;;;5.69;77.10;99355.34;3131503;28;20056;-73
2022/11/16 03:59:27;;;;;;;76.30;32.45;;;;;;;5.61;77.24;99330.66;3132674;28;20114;-73
2022/11/16 04:00:59;;;;;;;73.63;30.98;;;;;;;5.32;77.15;99288.50;3133331;28;20045;-75
2022/11/16 04:02:31;;;;;;;73.38;31.88;;;;;;;5.65;77.06;99353.75;3129565;28;20554;-74
2022/11/16 04:04:02;;;;;;;73.47;33.08;;;;;;;5.60;77.40;99334.13;3125819;28;20049;-74
2022/11/16 04:24:13;;;;;;;70.13;31.30;;;;;;;5.42;78.19;99299.41;3112520;28;20057;-73
2022/11/16 04:25:47;;;;;;;66.72;31.30;;;;;;;5.42;78.27;99292.50;3123518;28;20061;-74
2022/11/16 04:29:13;;;;;;;66.82;31.33;;;;;;;5.40;78.40;99298.63;3122981;28;20053;-74
2022/11/16 04:38:09;;;;;;;77.45;34.80;;;;;;;5.32;78.40;99274.78;3110051;28;20076;-71
2022/11/16 04:39:51;;;;;;;78.07;34.88;;;;;;;5.39;78.21;99284.88;3121908;28;20057;-74
2022/11/16 04:43:16;;;;;;;69.97;31.73;;;;;;;5.39;78.24;99294.34;3123615;28;20053;-74
2022/11/16 04:48:27;;;;;;;71.78;32.45;;;;;;;5.39;78.33;99278.88;3115819;28;20667;-72
2022/11/16 04:49:58;;;;;;;71.03;31.70;;;;;;;5.40;78.35;99275.38;3112815;28;20581;-71
2022/11/16 04:51:30;;;;;;;71.45;31.48;;;;;;;5.09;78.30;99223.88;3118586;28;20154;-72
2022/11/16 04:53:03;;;;;;;72.40;32.27;;;;;;;5.38;78.26;99272.00;3123040;28;20287;-72
2022/11/16 04:54:36;;;;;;;76.75;30.98;;;;;;;5.40;78.05;99276.22;3122364;28;21112;-72
2022/11/16 04:56:10;;;;;;;72.63;31.08;;;;;;;5.41;78.14;99274.47;3122095;28;20063;-72
2022/11/16 04:57:41;;;;;;;62.67;28.48;;;;;;;5.38;78.27;99270.28;3122429;28;20514;-71
2022/11/16 04:59:13;;;;;;;72.07;31.15;;;;;;;5.40;78.29;99265.88;3122409;28;20106;-71
2022/11/16 05:00:44;;;;;;;66.22;29.15;;;;;;;5.37;78.10;99260.81;3122065;28;20049;-72
2022/11/16 05:02:16;;;;;;;62.33;29.98;;;;;;;5.42;78.05;99266.69;3121217;28;20126;-73
2022/11/16 05:03:48;;;;;;;69.95;31.50;;;;;;;5.43;78.09;99263.19;3113431;28;20591;-73
2022/11/16 05:05:20;;;;;;;71.22;31.75;;;;;;;5.42;78.12;99263.25;3122070;28;20057;-73
2022/11/16 05:06:52;;;;;;;70.97;31.60;;;;;;;5.44;78.21;99269.22;3121903;28;20103;-72
2022/11/16 05:08:25;;;;;;;68.28;30.70;;;;;;;5.44;78.33;99266.63;3122703;28;20096;-73
2022/11/16 05:09:59;;;;;;;69.90;31.07;;;;;;;5.44;78.22;99272.66;3123870;28;20056;-72
2022/11/16 05:11:31;;;;;;;69.13;30.25;;;;;;;5.44;78.26;99271.78;3127061;28;20376;-74
2022/11/16 05:13:03;;;;;;;63.72;30.00;;;;;;;5.20;78.27;99230.38;3126851;28;20056;-73
2022/11/16 05:14:34;;;;;;;68.13;30.33;;;;;;;5.45;78.26;99268.34;3124581;28;20049;-73
2022/11/16 05:16:06;;;;;;;61.55;28.92;;;;;;;5.45;78.27;99276.91;3127083;28;20091;-73
2022/11/16 05:17:38;;;;;;;69.35;31.17;;;;;;;5.46;78.46;99270.84;3123881;28;20053;-73
2022/11/16 05:21:01;;;;;;;68.65;30.70;;;;;;;5.37;78.43;99265.16;3126713;28;20076;-73
2022/11/16 05:22:34;;;;;;;72.38;30.40;;;;;;;5.46;78.45;99285.50;3119411;28;20148;-73
2022/11/16 05:25:57;;;;;;;74.72;32.20;;;;;;;5.44;78.51;99276.94;3115054;28;20069;-72
2022/11/16 05:27:29;;;;;;;64.32;30.02;;;;;;;5.45;78.39;99283.81;3115159;28;20092;-73
2022/11/16 05:29:00;;;;;;;67.10;31.60;;;;;;;5.43;78.50;99286.44;3126613;28;20056;-73
2022/11/16 05:30:32;;;;;;;69.50;29.67;;;;;;;5.43;78.42;99281.28;3127100;28;20881;-73
2022/11/16 05:32:06;;;;;;;63.85;29.35;;;;;;;5.46;78.51;99291.50;3127526;28;20083;-71
2022/11/16 05:33:38;;;;;;;69.07;31.38;;;;;;;5.47;78.50;99292.34;3124796;28;20068;-72
2022/11/16 05:35:10;;;;;;;74.70;31.38;;;;;;;5.28;78.50;99260.28;3122243;28;20076;-72
2022/11/16 05:36:42;;;;;;;75.50;30.60;;;;;;;5.47;78.61;99285.47;3121936;28;20048;-75
2022/11/16 05:38:14;;;;;;;73.05;30.38;;;;;;;5.52;78.57;99293.03;3121720;28;20102;-75
2022/11/16 05:39:46;;;;;;;70.07;30.80;;;;;;;5.53;78.57;99292.16;3113632;28;20064;-72
2022/11/16 05:41:19;;;;;;;65.50;30.30;;;;;;;5.52;78.65;99293.03;3109866;28;20111;-75
2022/11/16 05:42:51;;;;;;;175.63;80.97;;;;;;;5.55;78.78;99292.94;3110595;28;20050;-75
2022/11/16 05:44:24;;;;;;;263.48;114.10;;;;;;;5.41;78.65;99266.72;3111072;28;20053;-71
2022/11/16 05:45:56;;;;;;;161.50;80.18;;;;;;;5.57;79.01;99283.41;3111166;28;20307;-69
2022/11/16 05:47:28;;;;;;;79.32;36.45;;;;;;;5.67;79.04;99286.53;3109612;28;20261;-73
2022/11/16 05:49:00;;;;;;;77.82;34.20;;;;;;;5.67;79.15;99278.78;3114000;28;20045;-68
2022/11/16 05:50:32;;;;;;;74.40;32.58;;;;;;;5.79;78.98;99296.44;3117021;28;20053;-70
2022/11/16 05:52:04;;;;;;;70.75;30.65;;;;;;;5.84;78.99;99297.16;3122718;28;20079;-68
2022/11/16 05:53:36;;;;;;;70.30;31.10;;;;;;;5.83;79.12;99285.13;3120523;28;20134;-70
2022/11/16 05:55:12;;;;;;;152.43;70.60;;;;;;;5.95;79.01;99291.66;3113763;28;20148;-72
2022/11/16 05:56:46;;;;;;;325.98;140.68;;;;;;;6.00;79.08;99289.72;3127390;28;20075;-73
2022/11/16 05:58:18;;;;;;;112.93;48.08;;;;;;;6.06;78.96;99291.25;3106131;28;20057;-71
2022/11/16 05:59:50;;;;;;;219.57;102.88;;;;;;;6.11;79.00;99291.97;3097812;28;20054;-68
2022/11/16 06:01:22;;;;;;;103.70;49.10;;;;;;;6.17;78.92;99277.97;3108947;28;20059;-68
2022/11/16 06:02:54;;;;;;;69.00;32.78;;;;;;;6.28;78.77;99287.03;3118279;28;20106;-67
2022/11/16 06:04:26;;;;;;;71.10;32.20;;;;;;;6.38;78.92;99290.13;3102967;28;20066;-68
2022/11/16 06:05:59;;;;;;;69.78;30.73;;;;;;;6.02;78.76;99218.16;3109327;28;20091;-75
2022/11/16 06:07:31;;;;;;;73.72;32.35;;;;;;;6.58;78.46;99281.66;3116638;28;20059;-70
2022/11/16 06:09:02;;;;;;;75.15;30.58;;;;;;;6.68;78.56;99271.78;3122136;28;20345;-73
2022/11/16 06:11:01;;;;;;;66.25;31.58;;;;;;;6.81;78.26;99278.19;3123311;28;20131;-72
2022/11/16 06:12:34;;;;;;;66.47;28.88;;;;;;;6.91;77.90;99271.75;3117532;28;20517;-70
2022/11/16 06:16:32;;;;;;;69.90;30.92;;;;;;;7.15;77.53;99269.13;3106021;28;20050;-69
2022/11/16 06:18:04;;;;;;;67.82;30.85;;;;;;;7.26;77.54;99266.94;3121646;28;20053;-69
2022/11/16 06:19:36;;;;;;;72.20;32.22;;;;;;;7.38;77.52;99261.25;3119320;28;20053;-70
2022/11/16 06:21:08;;;;;;;71.50;30.90;;;;;;;7.53;77.19;99264.97;3128468;28;20052;-70
2022/11/16 06:22:40;;;;;;;67.95;30.40;;;;;;;7.70;76.88;99261.69;3120553;28;20057;-69
2022/11/16 06:24:12;;;;;;;71.03;31.92;;;;;;;7.87;76.24;99261.81;3119017;28;20053;-69
2022/11/16 06:25:44;;;;;;;67.65;31.50;;;;;;;8.04;75.71;99258.47;3124212;28;20412;-69
2022/11/16 06:27:16;;;;;;;69.03;31.33;;;;;;;8.27;75.33;99257.47;3131122;28;20510;-69
2022/11/16 06:28:49;;;;;;;58.90;29.17;;;;;;;8.34;74.54;99235.56;3131450;28;20099;-69
2022/11/16 06:30:21;;;;;;;64.22;30.67;;;;;;;8.72;74.05;99260.69;3109693;28;20104;-69
2022/11/16 06:31:52;;;;;;;69.65;30.38;;;;;;;8.94;73.60;99260.56;3131130;28;20098;-70
2022/11/16 06:33:23;;;;;;;66.55;31.60;;;;;;;8.80;72.72;99199.72;3131225;28;20048;-70
2022/11/16 06:34:55;;;;;;;65.55;30.75;;;;;;;9.42;72.46;99262.53;3124186;28;20060;-70
2022/11/16 06:36:27;;;;;;;69.28;30.75;;;;;;;9.66;71.28;99262.25;3128634;28;20057;-70
2022/11/16 06:37:58;;;;;;;64.80;29.88;;;;;;;9.80;70.89;99260.63;3131289;28;20463;-71
2022/11/16 06:39:30;;;;;;;65.32;30.05;;;;;;;9.98;70.20;99258.03;3130378;28;20056;-70
2022/11/16 06:41:02;;;;;;;71.97;31.13;;;;;;;10.17;69.95;99258.72;3124269;28;20122;-68
2022/11/16 06:42:33;;;;;;;64.88;30.45;;;;;;;10.21;69.44;99252.47;3131367;28;20057;-68
2022/11/16 06:44:07;;;;;;;70.50;31.10;;;;;;;10.32;69.21;99256.28;3128181;28;20068;-66
2022/11/16 06:45:38;;;;;;;67.22;30.45;;;;;;;10.55;69.47;99263.72;3113438;28;20112;-67
2022/11/16 06:47:09;;;;;;;63.70;29.63;;;;;;;10.79;68.75;99258.09;3129627;28;20045;-68
2022/11/16 06:48:41;;;;;;;69.60;29.48;;;;;;;10.93;68.11;99243.41;3112078;28;20046;-69
2022/11/16 06:50:13;;;;;;;57.28;28.08;;;;;;;11.11;67.71;99249.34;3121494;28;20052;-68
2022/11/16 06:51:45;;;;;;;57.45;27.92;;;;;;;11.27;67.67;99227.63;3131380;28;20053;-68
2022/11/16 06:53:17;;;;;;;60.80;28.00;;;;;;;11.65;67.01;99255.88;3131522;28;20804;-71
2022/11/16 06:54:49;;;;;;;56.88;27.42;;;;;;;11.94;66.63;99243.75;3131680;28;20061;-68
2022/11/16 06:56:21;;;;;;;72.68;33.40;;;;;;;12.22;65.73;99251.63;3126028;28;20081;-68
2022/11/16 06:57:53;;;;;;;57.70;28.23;;;;;;;12.28;64.13;99250.41;3118644;28;20056;-67
2022/11/16 06:59:26;;;;;;;73.97;37.30;;;;;;;12.23;63.62;99231.56;3118866;28;20537;-69
2022/11/16 07:00:58;;;;;;;67.80;33.45;;;;;;;12.00;63.85;99186.81;3118917;28;20050;-69
2022/11/16 07:02:30;;;;;;;51.53;26.83;;;;;;;12.53;63.04;99240.09;3123779;28;20134;-72
2022/11/16 07:04:02;;;;;;;60.67;28.23;;;;;;;12.66;62.59;99244.56;3129774;28;20045;-69
2022/11/16 07:05:34;;;;;;;54.50;27.60;;;;;;;12.76;61.51;99240.44;3122014;28;20053;-69
2022/11/16 07:07:06;;;;;;;55.47;27.05;;;;;;;12.88;61.23;99231.84;3133675;28;20045;-68
2022/11/16 07:08:38;;;;;;;54.72;28.13;;;;;;;13.16;61.48;99237.88;3119422;28;20504;-70
2022/11/16 07:10:10;;;;;;;54.57;27.77;;;;;;;13.47;60.91;99244.63;3125666;28;20050;-69
2022/11/16 07:11:42;;;;;;;52.45;26.35;;;;;;;13.73;60.25;99232.44;3120936;28;20140;-68
2022/11/16 07:13:14;;;;;;;52.80;26.27;;;;;;;14.04;59.67;99236.41;3128083;28;20557;-72
2022/11/16 07:14:47;;;;;;;59.30;24.77;;;;;;;14.32;58.40;99237.13;3128145;28;20060;-70
2022/11/16 07:16:19;;;;;;;;;;;;;;;14.50;58.50;99237.63;3133639;28;20454;-67
2022/11/16 07:17:51;;;;;;;51.67;25.13;;;;;;;14.65;57.97;99235.75;3129441;28;20293;-65
2022/11/16 07:19:22;;;;;;;46.13;23.92;;;;;;;14.90;57.32;99234.81;3133294;28;20148;-68
2022/11/16 07:20:54;;;;;;;50.10;25.70;;;;;;;15.09;56.92;99229.91;3131402;28;20132;-67
2022/11/16 07:22:26;;;;;;;52.08;26.25;;;;;;;15.26;56.37;99233.91;3123108;28;20530;-67
2022/11/16 07:23:58;;;;;;;49.28;25.75;;;;;;;15.44;55.62;99226.50;3129648;28;20102;-68
2022/11/16 07:25:31;;;;;;;49.47;24.52;;;;;;;15.52;54.10;99228.53;3129583;28;20522;-70
2022/11/16 07:27:03;;;;;;;49.35;24.08;;;;;;;15.56;53.81;99228.19;3127075;28;20044;-70
2022/11/16 07:28:35;;;;;;;44.58;24.27;;;;;;;15.57;53.53;99205.41;3133332;28;20076;-69
2022/11/16 07:30:10;;;;;;;47.42;25.17;;;;;;;15.93;52.93;99228.06;3133379;28;20391;-73
2022/11/16 07:31:42;;;;;;;47.03;24.20;;;;;;;16.09;52.41;99220.69;3133071;28;20435;-69
2022/11/16 07:33:14;;;;;;;45.03;24.08;;;;;;;16.24;51.88;99220.44;3133347;28;20064;-69
2022/11/16 07:34:46;;;;;;;49.63;24.15;;;;;;;16.38;51.21;99220.19;3123517;28;20057;-69
2022/11/16 07:36:18;;;;;;;44.08;23.67;;;;;;;16.60;51.27;99224.63;3128041;28;20049;-68
2022/11/16 07:37:49;;;;;;;51.25;24.85;;;;;;;16.79;50.54;99224.00;3126439;28;20053;-68
2022/11/16 07:39:21;;;;;;;51.47;26.08;;;;;;;16.86;49.37;99222.56;3130139;28;20068;-68
2022/11/16 07:40:53;;;;;;;48.85;25.45;;;;;;;16.80;49.08;99216.00;3131240;28;20056;-70
2022/11/16 07:42:25;;;;;;;42.47;24.40;;;;;;;16.93;49.25;99222.91;3133128;28;20118;-68
2022/11/16 07:43:57;;;;;;;49.50;25.15;;;;;;;17.04;48.84;99213.19;3123800;28;20054;-68
2022/11/16 07:45:31;;;;;;;49.40;25.47;;;;;;;17.21;48.62;99214.41;3128655;28;20049;-67
2022/11/16 07:47:02;;;;;;;52.42;26.25;;;;;;;17.43;48.38;99207.41;3132797;28;20102;-71
2022/11/16 07:48:35;;;;;;;48.97;25.55;;;;;;;17.66;48.22;99214.22;3112758;28;20053;-70
2022/11/16 07:50:07;;;;;;;45.95;24.00;;;;;;;17.88;47.75;99215.91;3120636;28;20095;-70
2022/11/16 07:51:39;;;;;;;42.65;24.27;;;;;;;18.08;47.14;99213.38;3122278;28;20049;-70
2022/11/16 07:53:11;;;;;;;45.80;25.90;;;;;;;18.18;46.35;99214.25;3120756;28;20482;-70
2022/11/16 07:54:43;;;;;;;49.45;26.42;;;;;;;18.28;45.88;99215.13;3120341;28;20049;-70
2022/11/16 07:56:15;;;;;;;46.75;24.40;;;;;;;18.39;45.81;99203.66;3119688;28;20059;-69
2022/11/16 07:57:47;;;;;;;46.47;25.50;;;;;;;18.48;45.44;99204.66;3120450;28;20053;-69
2022/11/16 07:59:18;;;;;;;47.63;26.48;;;;;;;18.59;44.98;99207.19;3120646;28;20054;-69
2022/11/16 08:00:52;;;;;;;50.22;26.67;;;;;;;18.67;45.00;99203.88;3120966;28;20055;-70